sensor_id;sensor_type;location;lat;lon;timestamp;pressure;altitude;pressure_sealevel;temperature;humidity
28626;BME280;18905;42.668;23.364;2024-02-14T00:00:10;94835.72;;;4.97;73.24
28626;BME280;18905;42.668;23.364;2024-02-14T00:02:45;94838.50;;;5.05;72.81
28626;BME280;18905;42.668;23.364;2024-02-14T00:05:10;94825.94;;;5.14;72.54
28626;BME280;18905;42.668;23.364;2024-02-14T00:07:39;94837.44;;;5.12;72.05
28626;BME280;18905;42.668;23.364;2024-02-14T00:10:05;94844.88;;;5.08;72.12
28626;BME280;18905;42.668;23.364;2024-02-14T00:12:32;94842.81;;;5.05;72.91
28626;BME280;18905;42.668;23.364;2024-02-14T00:14:57;94849.22;;;5.02;73.42
28626;BME280;18905;42.668;23.364;2024-02-14T00:17:23;94834.44;;;4.99;72.84
28626;BME280;18905;42.668;23.364;2024-02-14T00:19:48;94855.03;;;5.18;72.68
28626;BME280;18905;42.668;23.364;2024-02-14T00:22:14;94848.44;;;5.12;72.61
28626;BME280;18905;42.668;23.364;2024-02-14T00:24:39;94849.22;;;5.07;72.59
28626;BME280;18905;42.668;23.364;2024-02-14T00:27:05;94851.50;;;5.09;72.68
28626;BME280;18905;42.668;23.364;2024-02-14T00:29:31;94832.66;;;4.95;73.37
28626;BME280;18905;42.668;23.364;2024-02-14T00:31:59;94833.16;;;4.97;73.21
28626;BME280;18905;42.668;23.364;2024-02-14T00:34:25;94845.66;;;5.03;73.12
28626;BME280;18905;42.668;23.364;2024-02-14T00:36:50;94854.88;;;4.99;72.69
28626;BME280;18905;42.668;23.364;2024-02-14T00:39:16;94833.44;;;4.90;73.06
28626;BME280;18905;42.668;23.364;2024-02-14T00:41:41;94842.09;;;4.94;73.04
28626;BME280;18905;42.668;23.364;2024-02-14T00:44:06;94840.56;;;4.93;72.99
28626;BME280;18905;42.668;23.364;2024-02-14T00:46:32;94818.41;;;4.79;72.31
28626;BME280;18905;42.668;23.364;2024-02-14T00:48:57;94855.88;;;4.93;73.88
28626;BME280;18905;42.668;23.364;2024-02-14T00:51:22;94854.88;;;4.99;72.39
28626;BME280;18905;42.668;23.364;2024-02-14T00:53:49;94845.16;;;4.96;72.83
28626;BME280;18905;42.668;23.364;2024-02-14T00:56:14;94864.00;;;5.11;72.84
28626;BME280;18905;42.668;23.364;2024-02-14T00:58:39;94849.25;;;4.92;72.82
28626;BME280;18905;42.668;23.364;2024-02-14T01:01:05;94846.16;;;5.00;72.46
28626;BME280;18905;42.668;23.364;2024-02-14T01:03:31;94866.56;;;5.05;73.09
28626;BME280;18905;42.668;23.364;2024-02-14T01:05:56;94862.53;;;4.99;72.95
28626;BME280;18905;42.668;23.364;2024-02-14T01:08:22;94861.19;;;5.17;72.89
28626;BME280;18905;42.668;23.364;2024-02-14T01:10:47;94862.47;;;5.15;72.21
28626;BME280;18905;42.668;23.364;2024-02-14T01:13:14;94863.75;;;5.07;72.24
28626;BME280;18905;42.668;23.364;2024-02-14T01:15:40;94853.81;;;5.00;72.32
28626;BME280;18905;42.668;23.364;2024-02-14T01:18:06;94866.03;;;5.14;71.96
28626;BME280;18905;42.668;23.364;2024-02-14T01:20:32;94857.91;;;5.06;72.36
28626;BME280;18905;42.668;23.364;2024-02-14T01:22:57;94861.75;;;4.94;72.83
28626;BME280;18905;42.668;23.364;2024-02-14T01:25:22;94857.91;;;5.01;71.93
28626;BME280;18905;42.668;23.364;2024-02-14T01:27:48;94851.81;;;4.97;72.20
28626;BME280;18905;42.668;23.364;2024-02-14T01:30:14;94854.81;;;5.04;72.25
28626;BME280;18905;42.668;23.364;2024-02-14T01:32:40;94854.59;;;5.06;72.59
28626;BME280;18905;42.668;23.364;2024-02-14T01:35:05;94854.09;;;4.99;72.88
28626;BME280;18905;42.668;23.364;2024-02-14T01:37:31;94855.31;;;5.12;72.25
28626;BME280;18905;42.668;23.364;2024-02-14T01:39:56;94847.97;;;4.95;72.61
28626;BME280;18905;42.668;23.364;2024-02-14T01:42:22;94858.41;;;5.08;72.13
28626;BME280;18905;42.668;23.364;2024-02-14T01:44:47;94857.88;;;5.12;71.54
28626;BME280;18905;42.668;23.364;2024-02-14T01:47:13;94853.78;;;5.16;72.02
28626;BME280;18905;42.668;23.364;2024-02-14T01:49:39;94839.81;;;4.93;71.88
28626;BME280;18905;42.668;23.364;2024-02-14T01:52:05;94857.91;;;5.01;72.53
28626;BME280;18905;42.668;23.364;2024-02-14T01:54:31;94848.72;;;4.95;72.44
28626;BME280;18905;42.668;23.364;2024-02-14T01:56:58;94862.44;;;5.20;71.84
28626;BME280;18905;42.668;23.364;2024-02-14T01:59:24;94844.66;;;4.99;71.97
28626;BME280;18905;42.668;23.364;2024-02-14T02:01:49;94851.81;;;4.97;72.42
28626;BME280;18905;42.668;23.364;2024-02-14T02:04:17;94844.66;;;4.99;72.46
28626;BME280;18905;42.668;23.364;2024-02-14T02:06:43;94859.44;;;5.02;71.66
28626;BME280;18905;42.668;23.364;2024-02-14T02:09:08;94863.53;;;5.03;72.34
28626;BME280;18905;42.668;23.364;2024-02-14T02:11:48;94843.91;;;4.89;72.41
28626;BME280;18905;42.668;23.364;2024-02-14T02:14:14;94845.66;;;4.93;72.01
28626;BME280;18905;42.668;23.364;2024-02-14T02:16:40;94869.41;;;4.99;72.13
28626;BME280;18905;42.668;23.364;2024-02-14T02:19:05;94875.53;;;4.98;72.41
28626;BME280;18905;42.668;23.364;2024-02-14T02:21:33;94878.34;;;4.96;71.63
28626;BME280;18905;42.668;23.364;2024-02-14T02:24:00;94874.75;;;5.02;71.41
28626;BME280;18905;42.668;23.364;2024-02-14T02:26:25;94869.16;;;4.95;71.69
28626;BME280;18905;42.668;23.364;2024-02-14T02:28:51;94859.72;;;4.91;71.60
28626;BME280;18905;42.668;23.364;2024-02-14T02:31:16;94880.41;;;4.99;71.23
28626;BME280;18905;42.668;23.364;2024-02-14T02:33:42;94859.50;;;4.82;71.84
28626;BME280;18905;42.668;23.364;2024-02-14T02:36:08;94880.88;;;5.06;71.01
28626;BME280;18905;42.668;23.364;2024-02-14T02:38:35;94883.97;;;4.98;71.60
28626;BME280;18905;42.668;23.364;2024-02-14T02:41:02;94866.09;;;4.98;71.50
28626;BME280;18905;42.668;23.364;2024-02-14T02:43:28;94867.38;;;4.91;71.47
28626;BME280;18905;42.668;23.364;2024-02-14T02:45:54;94873.25;;;4.96;71.43
28626;BME280;18905;42.668;23.364;2024-02-14T02:48:19;94884.22;;;4.97;70.89
28626;BME280;18905;42.668;23.364;2024-02-14T02:50:49;94883.72;;;4.85;71.47
28626;BME280;18905;42.668;23.364;2024-02-14T02:53:15;94893.72;;;4.81;71.64
28626;BME280;18905;42.668;23.364;2024-02-14T02:55:40;94889.63;;;4.85;71.53
28626;BME280;18905;42.668;23.364;2024-02-14T02:58:06;94900.31;;;4.97;71.04
28626;BME280;18905;42.668;23.364;2024-02-14T03:00:32;94892.66;;;4.97;71.03
28626;BME280;18905;42.668;23.364;2024-02-14T03:02:58;94898.50;;;5.03;71.08
28626;BME280;18905;42.668;23.364;2024-02-14T03:05:23;94901.06;;;5.03;71.15
28626;BME280;18905;42.668;23.364;2024-02-14T03:07:49;94909.22;;;5.00;71.72
28626;BME280;18905;42.668;23.364;2024-02-14T03:10:16;94912.53;;;5.11;70.41
28626;BME280;18905;42.668;23.364;2024-02-14T03:12:48;94913.53;;;5.15;69.86
28626;BME280;18905;42.668;23.364;2024-02-14T03:15:14;94914.09;;;4.96;70.53
28626;BME280;18905;42.668;23.364;2024-02-14T03:17:40;94903.38;;;4.84;70.78
28626;BME280;18905;42.668;23.364;2024-02-14T03:20:06;94911.81;;;4.90;70.32
28626;BME280;18905;42.668;23.364;2024-02-14T03:22:41;94927.88;;;5.00;70.56
28626;BME280;18905;42.668;23.364;2024-02-14T03:25:21;94927.91;;;4.90;70.63
28626;BME280;18905;42.668;23.364;2024-02-14T03:27:47;94916.41;;;4.83;69.98
28626;BME280;18905;42.668;23.364;2024-02-14T03:30:14;94936.06;;;4.97;70.01
28626;BME280;18905;42.668;23.364;2024-02-14T03:32:41;94916.69;;;4.81;70.41
28626;BME280;18905;42.668;23.364;2024-02-14T03:35:07;94915.63;;;4.77;70.39
28626;BME280;18905;42.668;23.364;2024-02-14T03:37:32;94937.06;;;4.96;70.78
28626;BME280;18905;42.668;23.364;2024-02-14T03:39:58;94917.69;;;4.80;71.03
28626;BME280;18905;42.668;23.364;2024-02-14T03:42:24;94932.47;;;4.93;70.04
28626;BME280;18905;42.668;23.364;2024-02-14T03:44:51;94947.28;;;5.06;70.09
28626;BME280;18905;42.668;23.364;2024-02-14T03:47:17;94929.19;;;4.88;69.91
28626;BME280;18905;42.668;23.364;2024-02-14T03:49:42;94957.50;;;4.91;69.38
28626;BME280;18905;42.668;23.364;2024-02-14T03:52:07;94952.13;;;4.98;69.51
28626;BME280;18905;42.668;23.364;2024-02-14T03:54:38;94955.44;;;5.08;69.80
28626;BME280;18905;42.668;23.364;2024-02-14T03:57:04;94960.56;;;5.08;68.72
28626;BME280;18905;42.668;23.364;2024-02-14T03:59:32;94957.50;;;5.01;70.38
28626;BME280;18905;42.668;23.364;2024-02-14T04:02:00;94950.88;;;4.85;69.62
28626;BME280;18905;42.668;23.364;2024-02-14T04:04:25;94947.78;;;4.93;69.57
28626;BME280;18905;42.668;23.364;2024-02-14T04:06:51;94939.16;;;4.74;69.84
28626;BME280;18905;42.668;23.364;2024-02-14T04:09:17;94965.69;;;4.88;69.65
28626;BME280;18905;42.668;23.364;2024-02-14T04:11:42;94960.03;;;4.91;69.44
28626;BME280;18905;42.668;23.364;2024-02-14T04:14:08;94973.84;;;4.85;69.55
28626;BME280;18905;42.668;23.364;2024-02-14T04:16:33;94971.03;;;4.82;70.05
28626;BME280;18905;42.668;23.364;2024-02-14T04:18:58;94978.44;;;4.68;70.68
28626;BME280;18905;42.668;23.364;2024-02-14T04:21:24;94978.16;;;4.80;70.47
28626;BME280;18905;42.668;23.364;2024-02-14T04:23:49;94988.66;;;4.78;70.12
28626;BME280;18905;42.668;23.364;2024-02-14T04:26:21;94992.75;;;4.79;70.16
28626;BME280;18905;42.668;23.364;2024-02-14T04:28:46;94975.38;;;4.76;70.52
28626;BME280;18905;42.668;23.364;2024-02-14T04:31:12;94961.84;;;4.61;70.25
28626;BME280;18905;42.668;23.364;2024-02-14T04:33:37;94987.09;;;4.82;70.34
28626;BME280;18905;42.668;23.364;2024-02-14T04:36:02;94975.88;;;4.78;69.41
28626;BME280;18905;42.668;23.364;2024-02-14T04:38:29;94962.34;;;4.58;70.08
28626;BME280;18905;42.668;23.364;2024-02-14T04:40:55;94994.53;;;4.79;69.97
28626;BME280;18905;42.668;23.364;2024-02-14T04:43:21;94994.50;;;4.64;71.01
28626;BME280;18905;42.668;23.364;2024-02-14T04:45:47;94998.34;;;4.66;70.64
28626;BME280;18905;42.668;23.364;2024-02-14T04:48:13;94992.50;;;4.66;70.00
28626;BME280;18905;42.668;23.364;2024-02-14T04:50:38;95008.78;;;4.60;70.70
28626;BME280;18905;42.668;23.364;2024-02-14T04:53:04;94988.13;;;4.51;70.40
28626;BME280;18905;42.668;23.364;2024-02-14T04:55:29;95002.69;;;4.66;71.36
28626;BME280;18905;42.668;23.364;2024-02-14T04:57:54;95014.16;;;4.68;70.46
28626;BME280;18905;42.668;23.364;2024-02-14T05:00:20;95013.13;;;4.59;71.19
28626;BME280;18905;42.668;23.364;2024-02-14T05:02:45;95010.34;;;4.81;72.21
28626;BME280;18905;42.668;23.364;2024-02-14T05:05:10;95013.91;;;5.10;70.66
28626;BME280;18905;42.668;23.364;2024-02-14T05:07:36;95000.91;;;5.01;68.80
28626;BME280;18905;42.668;23.364;2024-02-14T05:10:02;95037.16;;;5.03;69.77
28626;BME280;18905;42.668;23.364;2024-02-14T05:12:28;95031.50;;;5.12;69.75
28626;BME280;18905;42.668;23.364;2024-02-14T05:14:53;95040.72;;;5.02;69.21
28626;BME280;18905;42.668;23.364;2024-02-14T05:17:18;95030.50;;;4.67;70.36
28626;BME280;18905;42.668;23.364;2024-02-14T05:19:44;95048.63;;;4.66;70.23
28626;BME280;18905;42.668;23.364;2024-02-14T05:22:09;95050.41;;;4.70;70.89
28626;BME280;18905;42.668;23.364;2024-02-14T05:24:34;95049.09;;;4.53;71.06
28626;BME280;18905;42.668;23.364;2024-02-14T05:27:03;95046.31;;;4.54;70.90
28626;BME280;18905;42.668;23.364;2024-02-14T05:29:29;95055.50;;;4.65;70.17
28626;BME280;18905;42.668;23.364;2024-02-14T05:31:54;95056.75;;;4.53;71.29
28626;BME280;18905;42.668;23.364;2024-02-14T05:34:20;95068.50;;;4.69;nan
28626;BME280;18905;42.668;23.364;2024-02-14T05:36:46;95070.84;;;4.80;70.54
28626;BME280;18905;42.668;23.364;2024-02-14T05:39:12;95073.13;;;4.77;70.81
28626;BME280;18905;42.668;23.364;2024-02-14T05:41:37;95072.09;;;4.68;70.77
28626;BME280;18905;42.668;23.364;2024-02-14T05:44:03;95080.53;;;4.73;70.62
28626;BME280;18905;42.668;23.364;2024-02-14T05:46:29;95087.66;;;4.71;70.08
28626;BME280;18905;42.668;23.364;2024-02-14T05:48:54;95093.28;;;4.73;70.10
28626;BME280;18905;42.668;23.364;2024-02-14T05:51:22;95084.56;;;4.49;71.36
28626;BME280;18905;42.668;23.364;2024-02-14T05:53:50;95082.28;;;4.58;69.73
28626;BME280;18905;42.668;23.364;2024-02-14T05:56:15;95088.41;;;4.67;69.77
28626;BME280;18905;42.668;23.364;2024-02-14T05:58:40;95099.38;;;4.62;69.88
28626;BME280;18905;42.668;23.364;2024-02-14T06:01:06;95102.94;;;4.51;70.40
28626;BME280;18905;42.668;23.364;2024-02-14T06:03:31;95114.72;;;4.72;69.59
28626;BME280;18905;42.668;23.364;2024-02-14T06:05:57;95106.03;;;4.73;69.20
28626;BME280;18905;42.668;23.364;2024-02-14T06:08:22;95121.06;;;4.60;70.35
28626;BME280;18905;42.668;23.364;2024-02-14T06:10:49;95126.97;;;4.70;69.41
28626;BME280;18905;42.668;23.364;2024-02-14T06:13:15;95104.25;;;4.59;69.15
28626;BME280;18905;42.668;23.364;2024-02-14T06:15:40;95121.84;;;4.60;69.53
28626;BME280;18905;42.668;23.364;2024-02-14T06:18:05;95121.56;;;4.62;69.25
28626;BME280;18905;42.668;23.364;2024-02-14T06:20:31;95133.06;;;4.59;69.68
28626;BME280;18905;42.668;23.364;2024-02-14T06:22:57;95132.34;;;4.74;69.49
28626;BME280;18905;42.668;23.364;2024-02-14T06:25:22;95133.63;;;4.76;69.03
28626;BME280;18905;42.668;23.364;2024-02-14T06:27:48;95109.31;;;4.54;67.94
28626;BME280;18905;42.668;23.364;2024-02-14T06:30:13;95119.75;;;4.42;68.59
28626;BME280;18905;42.668;23.364;2024-02-14T06:32:39;95149.94;;;4.65;68.60
28626;BME280;18905;42.668;23.364;2024-02-14T06:35:04;95132.78;;;4.51;68.90
28626;BME280;18905;42.668;23.364;2024-02-14T06:37:30;95140.47;;;4.61;68.36
28626;BME280;18905;42.668;23.364;2024-02-14T06:39:55;95155.03;;;4.65;68.71
28626;BME280;18905;42.668;23.364;2024-02-14T06:42:20;95153.00;;;4.67;68.10
28626;BME280;18905;42.668;23.364;2024-02-14T06:44:46;95153.72;;;4.58;68.70
28626;BME280;18905;42.668;23.364;2024-02-14T06:47:11;95153.00;;;4.67;67.32
28626;BME280;18905;42.668;23.364;2024-02-14T06:49:37;95142.28;;;4.70;68.05
28626;BME280;18905;42.668;23.364;2024-02-14T06:52:03;95145.34;;;4.72;67.19
28626;BME280;18905;42.668;23.364;2024-02-14T06:54:28;95162.69;;;4.75;68.29
28626;BME280;18905;42.668;23.364;2024-02-14T06:56:54;95157.06;;;4.68;67.37
28626;BME280;18905;42.668;23.364;2024-02-14T06:59:19;95156.50;;;4.51;67.97
28626;BME280;18905;42.668;23.364;2024-02-14T07:01:45;95162.13;;;4.53;67.70
28626;BME280;18905;42.668;23.364;2024-02-14T07:04:10;95164.66;;;4.48;68.00
28626;BME280;18905;42.668;23.364;2024-02-14T07:06:35;95151.38;;;4.46;67.85
28626;BME280;18905;42.668;23.364;2024-02-14T07:09:01;95184.09;;;4.59;67.30
28626;BME280;18905;42.668;23.364;2024-02-14T07:11:26;95164.66;;;4.48;67.45
28626;BME280;18905;42.668;23.364;2024-02-14T07:13:52;95175.97;;;4.67;67.03
28626;BME280;18905;42.668;23.364;2024-02-14T07:16:17;95165.47;;;4.64;66.75
28626;BME280;18905;42.668;23.364;2024-02-14T07:18:43;95170.41;;;4.85;66.11
28626;BME280;18905;42.668;23.364;2024-02-14T07:21:08;95196.91;;;4.69;66.84
28626;BME280;18905;42.668;23.364;2024-02-14T07:23:33;95193.09;;;4.77;66.23
28626;BME280;18905;42.668;23.364;2024-02-14T07:25:59;95194.88;;;4.76;65.59
28626;BME280;18905;42.668;23.364;2024-02-14T07:28:26;95178.00;;;4.75;65.96
28626;BME280;18905;42.668;23.364;2024-02-14T07:30:51;95190.25;;;4.73;65.40
28626;BME280;18905;42.668;23.364;2024-02-14T07:33:17;95191.56;;;4.76;65.64
28626;BME280;18905;42.668;23.364;2024-02-14T07:35:42;95198.00;;;4.88;65.12
28626;BME280;18905;42.668;23.364;2024-02-14T07:38:08;95200.31;;;4.95;65.49
28626;BME280;18905;42.668;23.364;2024-02-14T07:40:33;95190.81;;;4.80;64.83
28626;BME280;18905;42.668;23.364;2024-02-14T07:43:00;95207.22;;;5.09;64.85
28626;BME280;18905;42.668;23.364;2024-02-14T07:45:26;95208.19;;;4.93;64.62
28626;BME280;18905;42.668;23.364;2024-02-14T07:47:51;95193.41;;;5.00;64.67
28626;BME280;18905;42.668;23.364;2024-02-14T07:50:17;95217.94;;;5.06;63.71
28626;BME280;18905;42.668;23.364;2024-02-14T07:52:43;95204.44;;;5.11;65.02
28626;BME280;18905;42.668;23.364;2024-02-14T07:55:09;95195.94;;;4.95;64.39
28626;BME280;18905;42.668;23.364;2024-02-14T07:57:37;95205.19;;;5.12;63.41
28626;BME280;18905;42.668;23.364;2024-02-14T08:00:04;95207.72;;;5.01;64.43
28626;BME280;18905;42.668;23.364;2024-02-14T08:02:30;95193.63;;;4.79;64.67
28626;BME280;18905;42.668;23.364;2024-02-14T08:04:55;95213.88;;;5.11;64.07
28626;BME280;18905;42.668;23.364;2024-02-14T08:07:20;95207.22;;;5.09;64.63
28626;BME280;18905;42.668;23.364;2024-02-14T08:09:46;95216.84;;;4.82;65.82
28626;BME280;18905;42.668;23.364;2024-02-14T08:12:11;95218.41;;;4.88;65.76
28626;BME280;18905;42.668;23.364;2024-02-14T08:14:37;95218.91;;;4.85;65.38
28626;BME280;18905;42.668;23.364;2024-02-14T08:17:02;95219.91;;;4.84;64.87
28626;BME280;18905;42.668;23.364;2024-02-14T08:19:27;95232.69;;;4.79;66.50
28626;BME280;18905;42.668;23.364;2024-02-14T08:21:53;95228.09;;;4.81;65.00
28626;BME280;18905;42.668;23.364;2024-02-14T08:24:24;95231.69;;;4.90;64.71
28626;BME280;18905;42.668;23.364;2024-02-14T08:26:50;95211.69;;;4.67;65.46
28626;BME280;18905;42.668;23.364;2024-02-14T08:29:15;95231.84;;;4.69;64.89
28626;BME280;18905;42.668;23.364;2024-02-14T08:31:41;95231.06;;;4.68;65.04
28626;BME280;18905;42.668;23.364;2024-02-14T08:34:06;95226.78;;;4.74;64.25
28626;BME280;18905;42.668;23.364;2024-02-14T08:36:31;95245.38;;;4.69;64.55
28626;BME280;18905;42.668;23.364;2024-02-14T08:38:57;95247.69;;;4.76;64.66
28626;BME280;18905;42.668;23.364;2024-02-14T08:41:22;95245.47;;;4.89;63.91
28626;BME280;18905;42.668;23.364;2024-02-14T08:43:48;95243.38;;;4.76;64.04
28626;BME280;18905;42.668;23.364;2024-02-14T08:46:16;95236.69;;;4.65;65.32
28626;BME280;18905;42.668;23.364;2024-02-14T08:48:42;95251.47;;;4.58;64.93
28626;BME280;18905;42.668;23.364;2024-02-14T08:51:12;95224.63;;;4.51;63.75
28626;BME280;18905;42.668;23.364;2024-02-14T08:53:38;95263.31;;;4.84;63.27
28626;BME280;18905;42.668;23.364;2024-02-14T08:56:04;95251.47;;;4.58;64.31
28626;BME280;18905;42.668;23.364;2024-02-14T08:58:29;95247.97;;;4.74;63.77
28626;BME280;18905;42.668;23.364;2024-02-14T09:00:54;95247.94;;;4.69;63.44
28626;BME280;18905;42.668;23.364;2024-02-14T09:03:20;95259.69;;;4.70;64.29
28626;BME280;18905;42.668;23.364;2024-02-14T09:05:45;95261.75;;;4.78;63.94
28626;BME280;18905;42.668;23.364;2024-02-14T09:08:12;95264.78;;;4.70;63.73
28626;BME280;18905;42.668;23.364;2024-02-14T09:10:37;95260.72;;;4.74;64.44
28626;BME280;18905;42.668;23.364;2024-02-14T09:13:03;95266.31;;;4.71;64.82
28626;BME280;18905;42.668;23.364;2024-02-14T09:15:29;95254.78;;;4.64;63.77
28626;BME280;18905;42.668;23.364;2024-02-14T09:17:56;95262.22;;;4.65;64.91
28626;BME280;18905;42.668;23.364;2024-02-14T09:20:22;95278.38;;;4.86;64.79
28626;BME280;18905;42.668;23.364;2024-02-14T09:22:47;95266.28;;;4.61;65.47
28626;BME280;18905;42.668;23.364;2024-02-14T09:25:13;95267.22;;;4.50;65.71
28626;BME280;18905;42.668;23.364;2024-02-14T09:27:39;95281.53;;;4.51;65.01
28626;BME280;18905;42.668;23.364;2024-02-14T09:30:07;95277.16;;;4.47;65.29
28626;BME280;18905;42.668;23.364;2024-02-14T09:32:33;95277.41;;;4.50;65.66
28626;BME280;18905;42.668;23.364;2024-02-14T09:35:01;95266.63;;;4.33;65.93
28626;BME280;18905;42.668;23.364;2024-02-14T09:37:29;95284.56;;;4.43;66.00
28626;BME280;18905;42.668;23.364;2024-02-14T09:39:55;95286.06;;;4.44;67.06
28626;BME280;18905;42.668;23.364;2024-02-14T09:42:28;95299.34;;;4.46;66.68
28626;BME280;18905;42.668;23.364;2024-02-14T09:44:59;95289.88;;;4.42;65.85
28626;BME280;18905;42.668;23.364;2024-02-14T09:47:27;95289.41;;;4.45;65.81
28626;BME280;18905;42.668;23.364;2024-02-14T09:49:56;95292.53;;;4.62;65.92
28626;BME280;18905;42.668;23.364;2024-02-14T09:52:23;95276.91;;;4.48;66.67
28626;BME280;18905;42.668;23.364;2024-02-14T09:54:49;95276.91;;;4.48;65.37
28626;BME280;18905;42.668;23.364;2024-02-14T09:57:16;95271.28;;;4.46;65.75
28626;BME280;18905;42.668;23.364;2024-02-14T09:59:42;95263.16;;;4.49;64.90
28626;BME280;18905;42.668;23.364;2024-02-14T10:02:09;95275.25;;;4.74;65.68
28626;BME280;18905;42.668;23.364;2024-02-14T10:04:35;95278.03;;;4.67;65.58
28626;BME280;18905;42.668;23.364;2024-02-14T10:07:04;95264.44;;;4.52;66.38
28626;BME280;18905;42.668;23.364;2024-02-14T10:09:30;95285.75;;;4.82;65.21
28626;BME280;18905;42.668;23.364;2024-02-14T10:11:55;95279.56;;;4.63;65.11
28626;BME280;18905;42.668;23.364;2024-02-14T10:14:23;95283.59;;;4.54;65.52
28626;BME280;18905;42.668;23.364;2024-02-14T10:16:49;95274.38;;;4.53;63.91
28626;BME280;18905;42.668;23.364;2024-02-14T10:19:18;95266.31;;;4.71;64.53
28626;BME280;18905;42.668;23.364;2024-02-14T10:21:43;95271.91;;;4.63;64.24
28626;BME280;18905;42.668;23.364;2024-02-14T10:24:09;95280.25;;;4.54;64.53
28626;BME280;18905;42.668;23.364;2024-02-14T10:26:37;95271.84;;;4.53;64.24
28626;BME280;18905;42.668;23.364;2024-02-14T10:29:02;95261.81;;;4.42;64.42
28626;BME280;18905;42.668;23.364;2024-02-14T10:31:28;95269.75;;;4.45;63.33
28626;BME280;18905;42.668;23.364;2024-02-14T10:33:56;95269.34;;;4.63;63.70
28626;BME280;18905;42.668;23.364;2024-02-14T10:36:22;95276.50;;;4.66;63.79
28626;BME280;18905;42.668;23.364;2024-02-14T10:38:50;95280.91;;;4.81;63.42
28626;BME280;18905;42.668;23.364;2024-02-14T10:41:18;95256.06;;;4.61;62.81
28626;BME280;18905;42.668;23.364;2024-02-14T10:43:44;95277.00;;;4.68;62.82
28626;BME280;18905;42.668;23.364;2024-02-14T10:46:23;95242.75;;;4.49;62.82
28626;BME280;18905;42.668;23.364;2024-02-14T10:48:54;95262.69;;;4.62;62.47
28626;BME280;18905;42.668;23.364;2024-02-14T10:51:25;95273.97;;;4.71;62.66
28626;BME280;18905;42.668;23.364;2024-02-14T10:53:51;95259.16;;;4.63;62.58
28626;BME280;18905;42.668;23.364;2024-02-14T10:56:18;95265.28;;;4.67;61.53
28626;BME280;18905;42.668;23.364;2024-02-14T10:58:46;95266.91;;;4.88;62.40
28626;BME280;18905;42.668;23.364;2024-02-14T11:01:13;95283.72;;;4.79;62.63
28626;BME280;18905;42.668;23.364;2024-02-14T11:03:40;95278.63;;;4.79;62.37
28626;BME280;18905;42.668;23.364;2024-02-14T11:06:06;95269.38;;;4.73;61.65
28626;BME280;18905;42.668;23.364;2024-02-14T11:08:31;95275.03;;;4.80;61.20
28626;BME280;18905;42.668;23.364;2024-02-14T11:11:00;95277.63;;;4.95;61.77
28626;BME280;18905;42.668;23.364;2024-02-14T11:13:29;95278.38;;;4.86;61.08
28626;BME280;18905;42.668;23.364;2024-02-14T11:16:00;95273.06;;;4.92;61.41
28626;BME280;18905;42.668;23.364;2024-02-14T11:18:27;95269.22;;;5.00;61.88
28626;BME280;18905;42.668;23.364;2024-02-14T11:20:54;95287.38;;;4.98;61.24
28626;BME280;18905;42.668;23.364;2024-02-14T11:23:22;95263.31;;;4.79;60.30
28626;BME280;18905;42.668;23.364;2024-02-14T11:25:47;95270.94;;;4.74;61.69
28626;BME280;18905;42.668;23.364;2024-02-14T11:28:14;95279.44;;;4.95;62.06
28626;BME280;18905;42.668;23.364;2024-02-14T11:30:41;95247.22;;;4.79;61.19
28626;BME280;18905;42.668;23.364;2024-02-14T11:33:18;95281.72;;;4.91;61.38
28626;BME280;18905;42.668;23.364;2024-02-14T11:35:48;95256.34;;;4.65;61.35
28626;BME280;18905;42.668;23.364;2024-02-14T11:38:18;95285.06;;;4.97;62.15
28626;BME280;18905;42.668;23.364;2024-02-14T11:40:44;95279.06;;;4.71;61.95
28626;BME280;18905;42.668;23.364;2024-02-14T11:43:17;95274.78;;;4.82;62.00
28626;BME280;18905;42.668;23.364;2024-02-14T11:45:43;95277.41;;;4.97;61.18
28626;BME280;18905;42.668;23.364;2024-02-14T11:48:15;95272.03;;;4.98;61.14
28626;BME280;18905;42.668;23.364;2024-02-14T11:50:43;95253.59;;;4.86;61.71
28626;BME280;18905;42.668;23.364;2024-02-14T11:53:13;95277.94;;;4.99;60.90
28626;BME280;18905;42.668;23.364;2024-02-14T11:55:40;95279.47;;;5.05;60.85
28626;BME280;18905;42.668;23.364;2024-02-14T11:58:09;95278.69;;;4.99;61.13
28626;BME280;18905;42.668;23.364;2024-02-14T12:00:39;95267.97;;;5.02;61.23
28626;BME280;18905;42.668;23.364;2024-02-14T12:03:15;95263.16;;;5.11;60.83
28626;BME280;18905;42.668;23.364;2024-02-14T12:05:40;95260.63;;;5.11;59.89
28626;BME280;18905;42.668;23.364;2024-02-14T12:08:08;95251.06;;;4.91;61.49
28626;BME280;18905;42.668;23.364;2024-02-14T12:10:35;95266.47;;;5.12;61.86
28626;BME280;18905;42.668;23.364;2024-02-14T12:13:21;95260.34;;;5.07;59.52
28626;BME280;18905;42.668;23.364;2024-02-14T12:15:48;95269.78;;;5.02;60.76
28626;BME280;18905;42.668;23.364;2024-02-14T12:18:14;95259.28;;;4.98;60.47
28626;BME280;18905;42.668;23.364;2024-02-14T12:20:40;95253.69;;;5.01;60.33
28626;BME280;18905;42.668;23.364;2024-02-14T12:23:06;95267.00;;;5.08;60.21
28626;BME280;18905;42.668;23.364;2024-02-14T12:25:32;95263.38;;;5.04;61.34
28626;BME280;18905;42.668;23.364;2024-02-14T12:27:58;95265.94;;;5.04;60.11
28626;BME280;18905;42.668;23.364;2024-02-14T12:30:42;95242.19;;;5.04;60.00
28626;BME280;18905;42.668;23.364;2024-02-14T12:33:10;95256.28;;;5.22;60.76
28626;BME280;18905;42.668;23.364;2024-02-14T12:35:36;95241.75;;;5.22;60.93
28626;BME280;18905;42.668;23.364;2024-02-14T12:38:07;95248.91;;;5.30;60.06
28626;BME280;18905;42.668;23.364;2024-02-14T12:40:35;95250.16;;;5.28;60.26
28626;BME280;18905;42.668;23.364;2024-02-14T12:43:01;95238.19;;;5.33;59.61
28626;BME280;18905;42.668;23.364;2024-02-14T12:45:26;95258.66;;;5.53;60.13
28626;BME280;18905;42.668;23.364;2024-02-14T12:47:52;95264.75;;;5.47;59.61
28626;BME280;18905;42.668;23.364;2024-02-14T12:50:18;95255.03;;;5.39;60.15
28626;BME280;18905;42.668;23.364;2024-02-14T12:52:48;95257.34;;;5.31;60.65
28626;BME280;18905;42.668;23.364;2024-02-14T12:55:16;95263.72;;;5.38;59.50